createdAt,value
2023-01-03T00:01:49.724Z,9.30
2023-01-03T00:03:54.567Z,9.30
2023-01-03T00:05:56.352Z,9.20
2023-01-03T00:07:58.028Z,9.30
2023-01-03T00:10:01.411Z,9.20
2023-01-03T00:12:25.585Z,9.20
2023-01-03T00:14:33.791Z,9.20
2023-01-03T00:16:35.787Z,9.30
2023-01-03T00:18:37.500Z,9.30
2023-01-03T00:20:39.303Z,9.30
2023-01-03T00:22:41.345Z,9.20
2023-01-03T00:24:44.709Z,9.20
2023-01-03T00:26:46.617Z,9.30
2023-01-03T00:28:48.345Z,9.20
2023-01-03T00:30:50.045Z,9.20
2023-01-03T00:32:51.848Z,9.20
2023-01-03T00:34:53.723Z,9.20
2023-01-03T00:36:56.143Z,9.30
2023-01-03T00:38:58.170Z,9.20
2023-01-03T00:41:07.120Z,9.20
2023-01-03T00:43:27.367Z,9.00
2023-01-03T00:45:35.095Z,9.10
2023-01-03T00:47:37.374Z,9.10
2023-01-03T00:49:39.099Z,9.10
2023-01-03T00:51:42.384Z,9.10
2023-01-03T00:53:46.881Z,9.10
2023-01-03T00:55:49.641Z,9.10
2023-01-03T00:57:51.462Z,9.00
2023-01-03T00:59:53.141Z,9.10
2023-01-03T01:01:57.082Z,9.20
2023-01-03T01:04:05.094Z,9.10
2023-01-03T01:06:20.474Z,9.00
2023-01-03T01:08:22.153Z,9.00
2023-01-03T01:10:24.378Z,9.00
2023-01-03T01:12:26.121Z,8.90
2023-01-03T01:14:29.638Z,8.90
2023-01-03T01:16:32.958Z,8.80
2023-01-03T01:18:35.378Z,8.90
2023-01-03T01:20:39.341Z,8.90
2023-01-03T01:22:41.135Z,8.90
2023-01-03T01:24:43.048Z,8.90
2023-01-03T01:26:45.933Z,8.90
2023-01-03T01:28:48.154Z,8.80
2023-01-03T01:30:49.934Z,8.80
2023-01-03T01:32:51.610Z,8.80
2023-01-03T01:34:53.257Z,8.70
2023-01-03T01:36:55.049Z,8.70
2023-01-03T01:39:03.476Z,8.80
2023-01-03T01:41:05.388Z,8.80
2023-01-03T01:43:39.182Z,8.60
2023-01-03T01:45:40.866Z,8.50
2023-01-03T01:47:59.686Z,8.50
2023-01-03T01:50:11.706Z,8.50
2023-01-03T01:52:16.407Z,8.50
2023-01-03T01:54:19.198Z,8.50
2023-01-03T01:56:31.412Z,8.50
2023-01-03T01:58:37.612Z,8.40
2023-01-03T02:00:41.887Z,8.50
2023-01-03T02:02:46.679Z,8.40
2023-01-03T02:04:52.123Z,8.40
2023-01-03T02:06:54.525Z,8.40
2023-01-03T02:08:56.210Z,8.40
2023-01-03T02:11:44.858Z,8.40
2023-01-03T02:14:01.609Z,8.40
2023-01-03T02:16:15.277Z,8.40
2023-01-03T02:18:37.660Z,8.40
2023-01-03T02:21:00.299Z,8.40
2023-01-03T02:23:13.321Z,8.40
2023-01-03T02:25:53.532Z,8.40
2023-01-03T02:28:17.039Z,8.40
2023-01-03T02:30:31.040Z,8.30
2023-01-03T02:32:42.094Z,8.30
2023-01-03T02:35:18.514Z,8.30
2023-01-03T02:37:26.538Z,8.20
2023-01-03T02:39:40.975Z,8.30
2023-01-03T02:42:29.989Z,8.20
2023-01-03T02:44:35.674Z,8.20
2023-01-03T02:46:49.415Z,8.00
2023-01-03T02:48:59.237Z,8.10
2023-01-03T02:51:05.289Z,8.10
2023-01-03T02:53:12.496Z,8.00
2023-01-03T02:55:19.581Z,8.00
2023-01-03T02:57:29.634Z,8.10
2023-01-03T02:59:44.652Z,8.00
2023-01-03T03:01:51.064Z,7.90
2023-01-03T03:03:54.030Z,8.00
2023-01-03T03:06:07.741Z,8.00
2023-01-03T03:08:09.520Z,8.00
2023-01-03T03:10:30.879Z,8.00
2023-01-03T03:12:53.215Z,7.90
2023-01-03T03:14:57.316Z,7.90
2023-01-03T03:17:08.778Z,7.90
2023-01-03T03:19:55.570Z,7.90
2023-01-03T03:22:15.953Z,7.90
2023-01-03T03:24:41.103Z,7.80
2023-01-03T03:26:45.290Z,7.80
2023-01-03T03:28:53.651Z,7.80
2023-01-03T03:31:02.173Z,7.80
2023-01-03T03:33:06.597Z,7.70
2023-01-03T03:35:11.879Z,7.70
2023-01-03T03:37:17.975Z,7.60
2023-01-03T03:39:39.665Z,7.70
2023-01-03T03:42:10.104Z,7.70
2023-01-03T03:45:01.056Z,7.70
2023-01-03T03:47:26.859Z,7.60
2023-01-03T03:49:38.474Z,7.50
2023-01-03T03:51:44.135Z,7.60
2023-01-03T03:53:46.953Z,7.60
2023-01-03T03:55:51.781Z,7.70
2023-01-03T03:57:58.759Z,7.60
2023-01-03T04:00:07.698Z,7.60
2023-01-03T04:02:12.723Z,7.70
2023-01-03T04:04:23.352Z,7.60
2023-01-03T04:06:35.181Z,7.50
2023-01-03T04:08:37.224Z,7.50
2023-01-03T04:10:39.105Z,7.30
2023-01-03T04:12:40.817Z,7.40
2023-01-03T04:14:42.505Z,7.30
2023-01-03T04:16:44.355Z,7.20
2023-01-03T04:18:46.158Z,7.30
2023-01-03T04:20:47.830Z,7.20
2023-01-03T04:22:49.601Z,7.20
2023-01-03T04:24:51.317Z,7.20
2023-01-03T04:26:52.998Z,7.10
2023-01-03T04:28:54.762Z,7.00
2023-01-03T04:30:56.579Z,7.00
2023-01-03T04:32:58.259Z,6.90
2023-01-03T04:34:59.955Z,6.90
2023-01-03T04:37:01.767Z,6.90
2023-01-03T04:39:03.610Z,6.80
2023-01-03T04:41:06.819Z,6.70
2023-01-03T04:43:28.532Z,6.80
2023-01-03T04:45:30.316Z,6.70
2023-01-03T04:47:32.093Z,6.70
2023-01-03T04:49:33.807Z,6.70
2023-01-03T04:51:35.919Z,6.80
2023-01-03T04:53:37.859Z,6.80
2023-01-03T04:55:46.710Z,6.70
2023-01-03T04:57:48.418Z,6.60
2023-01-03T04:59:50.319Z,6.70
2023-01-03T05:01:52.679Z,6.70
2023-01-03T05:04:00.015Z,6.60
2023-01-03T05:06:04.061Z,6.60
2023-01-03T05:08:07.747Z,6.70
2023-01-03T05:10:09.609Z,6.70
2023-01-03T05:12:12.206Z,6.70
2023-01-03T05:14:14.594Z,6.70
2023-01-03T05:16:16.904Z,6.70
2023-01-03T05:18:18.735Z,6.60
2023-01-03T05:20:39.591Z,6.70
2023-01-03T05:23:00.127Z,6.60
2023-01-03T05:25:20.587Z,6.70
2023-01-03T05:27:22.743Z,6.60
2023-01-03T05:29:25.589Z,6.50
2023-01-03T05:31:27.340Z,6.60
2023-01-03T05:33:29.603Z,6.60
2023-01-03T05:35:31.316Z,6.60
2023-01-03T05:37:32.988Z,6.50
2023-01-03T05:39:34.692Z,6.60
2023-01-03T05:41:55.328Z,6.60
2023-01-03T05:43:57.006Z,6.50
2023-01-03T05:45:58.851Z,6.50
2023-01-03T05:48:00.702Z,6.40
2023-01-03T05:50:02.437Z,6.30
2023-01-03T05:52:04.389Z,6.30
2023-01-03T05:54:06.434Z,6.30
2023-01-03T05:56:08.266Z,6.30
2023-01-03T05:58:11.878Z,6.30
2023-01-03T06:00:14.665Z,6.30
2023-01-03T06:02:16.632Z,6.30
2023-01-03T06:04:18.864Z,6.30
2023-01-03T06:06:20.751Z,6.20
2023-01-03T06:08:22.474Z,6.20
2023-01-03T06:10:24.181Z,6.20
2023-01-03T06:12:27.507Z,6.10
2023-01-03T06:14:29.292Z,6.20
2023-01-03T06:16:49.907Z,6.20
2023-01-03T06:18:51.744Z,6.20
2023-01-03T06:20:53.452Z,6.10
2023-01-03T06:22:56.021Z,6.10
2023-01-03T06:24:57.765Z,6.00
2023-01-03T06:26:59.633Z,6.10
2023-01-03T06:29:01.521Z,6.10
2023-01-03T06:31:05.399Z,6.00
2023-01-03T06:33:07.211Z,5.90
2023-01-03T06:35:09.404Z,6.00
2023-01-03T06:37:11.126Z,5.90
2023-01-03T06:39:12.910Z,5.90
2023-01-03T06:41:16.136Z,5.80
2023-01-03T06:43:17.806Z,5.90
2023-01-03T06:45:38.223Z,5.80
2023-01-03T06:47:58.846Z,5.80
2023-01-03T06:50:20.801Z,5.80
2023-01-03T06:52:41.245Z,5.80
2023-01-03T06:54:43.071Z,5.70
2023-01-03T06:56:44.776Z,5.60
2023-01-03T06:58:46.578Z,5.60
2023-01-03T07:00:48.310Z,5.60
2023-01-03T07:02:50.185Z,5.60
2023-01-03T07:04:52.096Z,5.50
2023-01-03T07:06:54.178Z,5.50
2023-01-03T07:08:56.248Z,5.50
2023-01-03T07:10:58.007Z,5.50
2023-01-03T07:13:21.456Z,5.40
2023-01-03T07:15:23.264Z,5.50
2023-01-03T07:17:24.990Z,5.50
2023-01-03T07:19:26.885Z,5.50
2023-01-03T07:21:30.404Z,5.40
2023-01-03T07:23:32.134Z,5.40
2023-01-03T07:25:33.971Z,5.60
2023-01-03T07:27:35.776Z,5.50
2023-01-03T07:29:37.476Z,5.50
2023-01-03T07:31:40.990Z,5.50
2023-01-03T07:33:42.823Z,5.60
2023-01-03T07:35:45.439Z,5.40
2023-01-03T07:37:47.471Z,5.40
2023-01-03T07:39:49.146Z,5.40
2023-01-03T07:42:09.667Z,5.30
2023-01-03T07:44:11.461Z,5.30
2023-01-03T07:46:19.330Z,5.50
2023-01-03T07:48:21.366Z,5.50
2023-01-03T07:50:23.114Z,5.50
2023-01-03T07:52:24.849Z,5.50
2023-01-03T07:54:26.617Z,5.50
2023-01-03T07:56:28.372Z,5.50
2023-01-03T07:58:30.390Z,5.70
2023-01-03T08:00:32.164Z,5.70
2023-01-03T08:02:35.698Z,5.60
2023-01-03T08:04:37.633Z,5.70
2023-01-03T08:06:39.384Z,5.60
2023-01-03T08:08:42.104Z,5.70
2023-01-03T08:11:02.258Z,5.70
2023-01-03T08:13:19.511Z,5.80
2023-01-03T08:15:21.300Z,5.90
2023-01-03T08:17:23.010Z,6.00
2023-01-03T08:19:25.210Z,6.00
2023-01-03T08:21:26.941Z,5.90
2023-01-03T08:23:29.987Z,6.00
2023-01-03T08:25:31.664Z,6.20
2023-01-03T08:27:33.343Z,6.30
2023-01-03T08:29:35.080Z,6.30
2023-01-03T08:31:41.709Z,6.40
2023-01-03T08:33:52.150Z,6.40
2023-01-03T08:36:01.777Z,6.50
2023-01-03T08:38:07.265Z,6.60
2023-01-03T08:40:11.175Z,6.60
2023-01-03T08:42:16.715Z,6.60
2023-01-03T08:44:18.601Z,6.60
2023-01-03T08:46:22.211Z,6.70
2023-01-03T08:48:24.578Z,6.70
2023-01-03T08:50:26.526Z,6.80
2023-01-03T08:52:34.580Z,7.00
2023-01-03T08:54:37.171Z,7.10
2023-01-03T08:56:40.049Z,7.00
2023-01-03T08:58:41.808Z,7.00
2023-01-03T09:00:43.536Z,7.00
2023-01-03T09:02:45.410Z,7.10
2023-01-03T09:04:47.356Z,7.10
2023-01-03T09:06:49.081Z,7.20
2023-01-03T09:08:50.804Z,7.30
2023-01-03T09:10:52.682Z,7.30
2023-01-03T09:12:54.584Z,7.30
2023-01-03T09:14:56.362Z,7.40
2023-01-03T09:16:58.161Z,7.50
2023-01-03T09:19:00.233Z,7.50
2023-01-03T09:21:05.202Z,7.50
2023-01-03T09:23:06.994Z,7.40
2023-01-03T09:25:09.329Z,7.40
2023-01-03T09:27:11.028Z,7.40
2023-01-03T09:29:13.215Z,7.40
2023-01-03T09:31:14.989Z,7.60
2023-01-03T09:33:16.835Z,7.60
2023-01-03T09:35:18.587Z,7.60
2023-01-03T09:37:20.368Z,7.70
2023-01-03T09:39:22.193Z,7.70
2023-01-03T09:41:26.180Z,7.80
2023-01-03T09:47:30.363Z,7.80
2023-01-03T09:50:39.297Z,8.00
2023-01-03T09:53:37.963Z,8.00
2023-01-03T09:56:02.616Z,8.00
2023-01-03T09:58:29.825Z,7.80
2023-01-03T10:01:00.721Z,7.90
2023-01-03T10:03:42.144Z,8.10
2023-01-03T10:06:09.241Z,8.20
2023-01-03T10:08:16.390Z,8.30
2023-01-03T10:10:45.108Z,8.60
2023-01-03T10:12:55.109Z,8.80
2023-01-03T10:15:21.034Z,8.90
2023-01-03T10:17:44.094Z,8.90
2023-01-03T10:20:04.752Z,9.00
2023-01-03T10:22:13.351Z,9.10
2023-01-03T10:24:22.822Z,9.30
2023-01-03T10:26:32.637Z,9.20
2023-01-03T10:28:47.858Z,9.30
2023-01-03T10:31:07.556Z,9.40
2023-01-03T10:33:19.172Z,9.40
2023-01-03T10:35:29.725Z,9.40
2023-01-03T10:37:31.481Z,9.50
2023-01-03T10:39:33.326Z,9.50
2023-01-03T10:41:48.951Z,9.50
2023-01-03T10:43:59.215Z,9.40
2023-01-03T10:46:04.261Z,9.50
2023-01-03T10:48:06.469Z,9.40
2023-01-03T10:50:19.091Z,9.50
2023-01-03T10:52:24.393Z,9.40
2023-01-03T10:54:44.693Z,9.40
2023-01-03T10:56:47.665Z,9.40
2023-01-03T10:59:09.645Z,9.40
2023-01-03T11:01:18.468Z,9.50
2023-01-03T11:03:26.557Z,9.50
2023-01-03T11:05:28.404Z,9.60
2023-01-03T11:07:30.233Z,9.70
2023-01-03T11:09:52.163Z,9.70
2023-01-03T11:11:59.890Z,9.80
2023-01-03T11:14:24.530Z,9.70
2023-01-03T11:16:31.954Z,9.80
2023-01-03T11:18:33.736Z,10.00
2023-01-03T11:20:57.400Z,10.50
2023-01-03T11:23:03.731Z,10.60
2023-01-03T11:25:12.723Z,10.60
2023-01-03T11:27:34.690Z,10.90
2023-01-03T11:29:42.980Z,11.20
2023-01-03T11:32:29.990Z,11.30
2023-01-03T11:35:21.624Z,11.50
2023-01-03T11:37:25.623Z,11.70
2023-01-03T11:39:33.805Z,11.70
2023-01-03T11:42:09.797Z,11.90
2023-01-03T11:44:24.010Z,12.10
2023-01-03T11:46:53.399Z,12.20
2023-01-03T11:49:28.509Z,11.90
2023-01-03T11:52:05.469Z,12.10
2023-01-03T11:54:36.467Z,12.40
2023-01-03T11:56:44.618Z,12.60
2023-01-03T11:59:10.825Z,12.60
2023-01-03T12:01:41.691Z,12.30
2023-01-03T12:04:07.852Z,12.50
2023-01-03T12:06:28.777Z,12.50
2023-01-03T12:08:43.435Z,12.60
2023-01-03T12:10:54.496Z,12.00
2023-01-03T12:13:04.199Z,12.30
2023-01-03T12:15:17.886Z,12.50
2023-01-03T12:17:43.519Z,12.40
2023-01-03T12:19:49.663Z,12.70
2023-01-03T12:21:58.058Z,13.00
2023-01-03T12:24:15.028Z,12.70
2023-01-03T12:26:24.297Z,13.00
2023-01-03T12:28:52.850Z,13.10
2023-01-03T12:31:13.034Z,13.00
2023-01-03T12:33:35.869Z,13.30
2023-01-03T12:35:59.674Z,12.80
2023-01-03T12:38:05.367Z,12.90
2023-01-03T12:40:39.203Z,13.70
2023-01-03T12:42:57.503Z,13.90
2023-01-03T12:45:11.835Z,13.60
2023-01-03T12:47:43.206Z,13.70
2023-01-03T12:49:56.837Z,13.80
2023-01-03T12:51:59.623Z,13.90
2023-01-03T12:54:27.083Z,14.40
2023-01-03T12:57:03.074Z,14.40
2023-01-03T12:59:20.683Z,13.90
2023-01-03T13:01:36.560Z,13.70
2023-01-03T13:03:54.644Z,13.70
2023-01-03T13:06:22.096Z,13.60
2023-01-03T13:08:31.105Z,13.60
2023-01-03T13:10:36.500Z,13.70
2023-01-03T13:12:41.162Z,14.30
2023-01-03T13:14:54.464Z,14.30
2023-01-03T13:17:07.023Z,14.30
2023-01-03T13:19:23.665Z,14.00
2023-01-03T13:21:54.547Z,14.90
2023-01-03T13:24:00.089Z,15.60
2023-01-03T13:26:07.167Z,16.30
2023-01-03T13:28:20.975Z,16.80
2023-01-03T13:30:28.535Z,17.30
2023-01-03T13:32:37.919Z,16.80
2023-01-03T13:34:40.132Z,17.20
2023-01-03T13:37:06.990Z,17.20
2023-01-03T13:39:31.282Z,16.30
2023-01-03T13:41:39.294Z,15.70
2023-01-03T13:43:42.399Z,15.30
2023-01-03T13:45:44.060Z,14.90
2023-01-03T13:47:51.440Z,14.80
2023-01-03T13:49:54.161Z,15.10
2023-01-03T13:51:57.828Z,15.20
2023-01-03T13:54:01.642Z,15.10
2023-01-03T13:56:15.292Z,14.80
2023-01-03T13:58:37.466Z,15.00
2023-01-03T14:00:40.742Z,14.80
2023-01-03T14:02:58.898Z,14.50
2023-01-03T14:05:45.651Z,14.50
2023-01-03T14:07:53.417Z,14.00
2023-01-03T14:10:31.246Z,13.80
2023-01-03T14:12:54.354Z,14.00
2023-01-03T14:14:57.643Z,14.10
2023-01-03T14:17:01.010Z,13.70
2023-01-03T14:19:30.181Z,13.70
2023-01-03T14:21:49.384Z,13.90
2023-01-03T14:24:01.267Z,13.80
2023-01-03T14:26:16.419Z,13.80
2023-01-03T14:28:26.090Z,13.90
2023-01-03T14:30:34.666Z,13.90
2023-01-03T14:32:39.427Z,13.80
2023-01-03T14:34:41.873Z,13.50
2023-01-03T14:36:48.022Z,13.30
2023-01-03T14:38:58.286Z,12.80
2023-01-03T14:41:01.570Z,12.70
2023-01-03T14:43:06.249Z,12.70
2023-01-03T14:45:16.184Z,12.60
2023-01-03T14:47:18.721Z,12.60
2023-01-03T14:49:25.636Z,12.60
2023-01-03T14:51:31.713Z,12.50
2023-01-03T14:53:34.361Z,12.20
2023-01-03T14:55:36.592Z,12.00
2023-01-03T14:57:39.167Z,11.80
2023-01-03T14:59:41.144Z,11.70
2023-01-03T15:01:44.604Z,11.60
2023-01-03T15:03:48.665Z,11.40
2023-01-03T15:05:58.601Z,11.20
2023-01-03T15:08:23.007Z,11.10
2023-01-03T15:10:34.477Z,10.80
2023-01-03T15:12:39.811Z,10.70
2023-01-03T15:14:41.663Z,10.50
2023-01-03T15:16:43.502Z,10.40
2023-01-03T15:18:46.980Z,10.30
2023-01-03T15:20:52.156Z,10.20
2023-01-03T15:22:55.118Z,10.20
2023-01-03T15:25:08.702Z,10.00
2023-01-03T15:27:38.538Z,10.00
2023-01-03T15:29:45.298Z,9.90
2023-01-03T15:31:56.580Z,9.80
2023-01-03T15:34:14.872Z,9.70
2023-01-03T15:36:19.253Z,9.60
2023-01-03T15:38:34.429Z,9.50
2023-01-03T15:40:39.983Z,9.60
2023-01-03T15:43:02.599Z,9.60
2023-01-03T15:45:19.625Z,9.50
2023-01-03T15:47:24.077Z,9.40
2023-01-03T15:49:27.693Z,9.30
2023-01-03T15:51:29.684Z,9.20
2023-01-03T15:53:44.316Z,9.20
2023-01-03T15:55:48.073Z,9.10
2023-01-03T15:57:52.426Z,9.00
2023-01-03T15:59:59.332Z,9.00
2023-01-03T16:02:01.711Z,8.90
2023-01-03T16:04:04.202Z,8.80
2023-01-03T16:06:06.380Z,8.80
2023-01-03T16:08:31.558Z,8.80
2023-01-03T16:10:33.549Z,8.70
2023-01-03T16:12:37.534Z,8.70
2023-01-03T16:14:42.260Z,8.60
2023-01-03T16:16:47.247Z,8.60
2023-01-03T16:18:49.316Z,8.60
2023-01-03T16:20:51.185Z,8.50
2023-01-03T16:23:00.568Z,8.40
2023-01-03T16:25:05.311Z,8.30
2023-01-03T16:27:14.083Z,8.20
2023-01-03T16:29:16.494Z,8.20
2023-01-03T16:31:19.610Z,8.10
2023-01-03T16:33:21.629Z,8.00
2023-01-03T16:35:23.407Z,8.00
2023-01-03T16:37:27.008Z,7.80
2023-01-03T16:39:28.767Z,7.80
2023-01-03T16:41:30.587Z,7.80
2023-01-03T16:43:32.362Z,7.80
2023-01-03T16:45:34.195Z,7.70
2023-01-03T16:47:36.127Z,7.80
2023-01-03T16:49:38.370Z,7.70
2023-01-03T16:51:47.994Z,7.70
2023-01-03T16:53:53.309Z,7.60
2023-01-03T16:55:56.300Z,7.60
2023-01-03T16:57:59.868Z,7.60
2023-01-03T17:00:01.844Z,7.50
2023-01-03T17:02:03.810Z,7.40
2023-01-03T17:04:05.683Z,7.30
2023-01-03T17:06:33.468Z,7.20
2023-01-03T17:08:41.440Z,7.00
2023-01-03T17:10:46.778Z,7.00
2023-01-03T17:12:48.657Z,7.10
2023-01-03T17:14:53.309Z,7.00
2023-01-03T17:16:55.126Z,7.10
2023-01-03T17:18:57.269Z,7.00
2023-01-03T17:21:20.645Z,7.10
2023-01-03T17:23:23.317Z,7.00
2023-01-03T17:25:25.669Z,7.00
2023-01-03T17:27:32.649Z,6.90
2023-01-03T17:29:35.324Z,6.90
2023-01-03T17:31:37.366Z,6.80
2023-01-03T17:33:39.506Z,6.70
2023-01-03T17:35:42.348Z,6.60
2023-01-03T17:38:14.567Z,6.70
2023-01-03T17:40:27.628Z,6.50
2023-01-03T17:42:33.262Z,6.50
2023-01-03T17:44:35.135Z,6.40
2023-01-03T17:46:55.762Z,6.50
2023-01-03T17:49:16.139Z,6.40
2023-01-03T17:51:18.222Z,6.50
2023-01-03T17:53:24.541Z,6.30
2023-01-03T17:55:30.860Z,6.20
2023-01-03T17:57:34.582Z,6.20
2023-01-03T17:59:36.559Z,6.10
2023-01-03T18:01:38.538Z,6.10
2023-01-03T18:03:41.299Z,6.00
2023-01-03T18:05:43.585Z,6.00
2023-01-03T18:07:45.584Z,6.10
2023-01-03T18:09:48.866Z,6.10
2023-01-03T18:11:51.708Z,6.10
2023-01-03T18:13:53.633Z,6.00
2023-01-03T18:15:56.287Z,5.90
2023-01-03T18:17:58.255Z,5.90
2023-01-03T18:20:00.887Z,5.90
2023-01-03T18:22:02.654Z,5.80
2023-01-03T18:24:24.330Z,5.80
2023-01-03T18:26:38.019Z,5.90
2023-01-03T18:28:40.393Z,5.80
2023-01-03T18:30:42.127Z,5.80
2023-01-03T18:32:43.869Z,5.70
2023-01-03T18:34:46.368Z,5.70
2023-01-03T18:36:50.232Z,5.70
2023-01-03T18:38:57.342Z,5.70
2023-01-03T18:41:05.011Z,5.60
2023-01-03T18:43:13.747Z,5.50
2023-01-03T18:45:15.770Z,5.40
2023-01-03T18:47:17.661Z,5.40
2023-01-03T18:49:19.552Z,5.40
2023-01-03T18:51:25.039Z,5.50
2023-01-03T18:53:31.159Z,5.40
2023-01-03T18:55:35.013Z,5.40
2023-01-03T18:57:37.203Z,5.40
2023-01-03T18:59:39.269Z,5.30
2023-01-03T19:01:41.259Z,5.30
2023-01-03T19:03:44.364Z,5.20
2023-01-03T19:05:46.253Z,5.20
2023-01-03T19:07:50.015Z,5.10
2023-01-03T19:09:51.805Z,5.10
2023-01-03T19:11:54.390Z,5.00
2023-01-03T19:14:00.087Z,5.00
2023-01-03T19:16:01.965Z,4.90
2023-01-03T19:18:04.096Z,5.00
2023-01-03T19:20:07.036Z,5.00
2023-01-03T19:22:33.988Z,4.90
2023-01-03T19:24:39.217Z,4.90
2023-01-03T19:26:43.941Z,4.80
2023-01-03T19:28:45.782Z,4.90
2023-01-03T19:30:47.992Z,4.90
2023-01-03T19:32:54.345Z,4.80
2023-01-03T19:34:56.371Z,4.80
2023-01-03T19:36:58.718Z,4.70
2023-01-03T19:39:00.669Z,4.60
2023-01-03T19:41:02.641Z,4.70
2023-01-03T19:43:05.210Z,4.80
2023-01-03T19:45:32.427Z,4.60
2023-01-03T19:47:34.357Z,4.70
2023-01-03T19:49:36.448Z,4.70
2023-01-03T19:51:38.202Z,4.80
2023-01-03T19:53:42.283Z,4.70
2023-01-03T19:55:46.907Z,4.50
2023-01-03T19:57:50.508Z,4.40
2023-01-03T19:59:56.593Z,4.50
2023-01-03T20:02:24.046Z,4.60
2023-01-03T20:04:20.687Z,4.70
2023-01-03T20:06:22.690Z,4.80
2023-01-03T20:08:24.635Z,4.80
2023-01-03T20:10:26.981Z,4.80
2023-01-03T20:12:28.715Z,5.00
2023-01-03T20:14:30.451Z,5.00
2023-01-03T20:16:32.305Z,5.10
2023-01-03T20:18:36.637Z,5.20
2023-01-03T20:20:38.932Z,4.90
2023-01-03T20:25:05.792Z,4.80
2023-01-03T20:27:13.188Z,4.70
2023-01-03T20:29:14.917Z,4.60
2023-01-03T20:31:20.343Z,4.50
2023-01-03T20:33:23.144Z,4.50
2023-01-03T20:36:08.459Z,4.50
2023-01-03T20:37:58.122Z,4.50
2023-01-03T20:40:00.056Z,4.40
2023-01-03T20:42:04.015Z,4.40
2023-01-03T20:44:09.148Z,4.30
2023-01-03T20:46:20.247Z,4.30
2023-01-03T20:48:25.926Z,4.30
2023-01-03T20:50:29.261Z,4.20
2023-01-03T20:52:31.116Z,4.20
2023-01-03T20:54:32.885Z,4.20
2023-01-03T20:56:34.913Z,4.10
2023-01-03T20:58:36.747Z,4.10
2023-01-03T21:00:38.965Z,4.10
2023-01-03T21:02:40.873Z,4.20
2023-01-03T21:04:46.007Z,4.10
2023-01-03T21:06:48.817Z,4.10
2023-01-03T21:08:54.054Z,4.10
2023-01-03T21:10:57.436Z,4.10
2023-01-03T21:13:01.606Z,4.10
2023-01-03T21:15:03.412Z,4.00
2023-01-03T21:17:05.619Z,4.00
2023-01-03T21:19:16.474Z,4.00
2023-01-03T21:21:20.447Z,4.10
2023-01-03T21:23:23.605Z,4.00
2023-01-03T21:25:32.350Z,4.00
2023-01-03T21:27:35.553Z,3.90
2023-01-03T21:29:39.325Z,3.90
2023-01-03T21:31:42.682Z,3.80
2023-01-03T21:33:45.117Z,3.90
2023-01-03T21:35:49.797Z,4.00
2023-01-03T21:37:53.937Z,3.90
2023-01-03T21:39:55.863Z,3.80
2023-01-03T21:42:19.785Z,3.90
2023-01-03T21:44:21.536Z,3.80
2023-01-03T21:46:25.144Z,3.70
2023-01-03T21:48:26.892Z,3.80
2023-01-03T21:50:32.055Z,3.80
2023-01-03T21:52:41.497Z,3.80
2023-01-03T21:54:43.826Z,3.80
2023-01-03T21:56:46.596Z,3.90
2023-01-03T21:58:49.064Z,3.90
2023-01-03T22:00:51.249Z,3.90
2023-01-03T22:03:14.463Z,3.90
2023-01-03T22:05:16.753Z,3.80
2023-01-03T22:07:18.792Z,3.70
2023-01-03T22:09:39.230Z,3.70
2023-01-03T22:11:41.000Z,3.70
2023-01-03T22:13:43.304Z,3.70
2023-01-03T22:15:45.710Z,3.60
2023-01-03T22:17:48.152Z,3.60
2023-01-03T22:19:49.986Z,3.60
2023-01-03T22:21:51.976Z,3.60
2023-01-03T22:23:54.735Z,3.50
2023-01-03T22:26:05.057Z,3.50
2023-01-03T22:28:07.570Z,3.50
2023-01-03T22:30:12.825Z,3.50
2023-01-03T22:32:14.678Z,3.50
2023-01-03T22:34:16.513Z,3.50
2023-01-03T22:36:18.562Z,3.50
2023-01-03T22:38:20.334Z,3.40
2023-01-03T22:40:22.190Z,3.50
2023-01-03T22:42:23.917Z,3.30
2023-01-03T22:44:25.752Z,3.20
2023-01-03T22:46:28.837Z,3.10
2023-01-03T22:48:30.907Z,3.20
2023-01-03T22:50:33.511Z,3.30
2023-01-03T22:52:38.038Z,3.20
2023-01-03T22:54:40.632Z,3.10
2023-01-03T22:56:45.187Z,3.00
2023-01-03T22:58:46.953Z,3.10
2023-01-03T23:00:48.915Z,3.10
2023-01-03T23:02:50.718Z,3.10
2023-01-03T23:04:52.870Z,3.10
2023-01-03T23:06:58.310Z,3.10
2023-01-03T23:09:01.614Z,3.10
2023-01-03T23:11:33.172Z,3.00
2023-01-03T23:13:36.495Z,2.90
2023-01-03T23:15:38.299Z,2.80
2023-01-03T23:17:58.164Z,2.80
2023-01-03T23:20:00.294Z,2.90
2023-01-03T23:22:02.599Z,2.90
2023-01-03T23:24:07.104Z,2.90
2023-01-03T23:26:09.034Z,2.80
2023-01-03T23:28:11.067Z,2.80
2023-01-03T23:30:13.448Z,2.80
2023-01-03T23:32:15.450Z,2.80
2023-01-03T23:34:17.597Z,2.80
2023-01-03T23:36:19.572Z,2.70
2023-01-03T23:38:21.383Z,2.80
2023-01-03T23:40:23.157Z,2.90
2023-01-03T23:42:24.901Z,2.80
2023-01-03T23:44:26.973Z,2.80
2023-01-03T23:46:28.902Z,2.80
2023-01-03T23:48:31.345Z,2.80
2023-01-03T23:50:33.025Z,2.90
2023-01-03T23:52:34.727Z,2.80
2023-01-03T23:54:37.354Z,2.80
2023-01-03T23:56:39.229Z,2.80
2023-01-03T23:58:41.701Z,2.80
